createdAt,value
2022-08-28T00:10:17.283Z,96.2
2022-08-28T00:30:17.246Z,95.2
2022-08-28T00:50:17.220Z,96.5
2022-08-28T01:10:17.182Z,96.1
2022-08-28T01:30:17.148Z,95.6
2022-08-28T01:50:17.136Z,95.0
2022-08-28T02:10:17.102Z,96.1
2022-08-28T02:30:17.060Z,96.0
2022-08-28T02:50:17.040Z,96.5
2022-08-28T03:10:17.004Z,95.5
2022-08-28T03:30:16.984Z,96.0
2022-08-28T03:50:16.945Z,96.8
2022-08-28T04:10:16.936Z,97.4
2022-08-28T04:30:16.885Z,96.5
2022-08-28T04:50:16.863Z,96.2
2022-08-28T05:10:16.839Z,96.4
2022-08-28T05:30:16.803Z,97.6
2022-08-28T05:50:16.765Z,97.2
2022-08-28T06:10:16.743Z,97.0
2022-08-28T06:30:16.715Z,96.6
2022-08-28T06:50:16.693Z,97.1
2022-08-28T07:10:16.651Z,96.5
2022-08-28T07:30:16.650Z,97.8
2022-08-28T07:50:16.594Z,97.5
2022-08-28T08:10:16.570Z,96.3
2022-08-28T08:30:16.530Z,97.9
2022-08-28T08:50:16.516Z,96.8
2022-08-28T09:10:16.479Z,97.6
2022-08-28T09:30:16.449Z,98.2
2022-08-28T09:50:16.409Z,98.3
2022-08-28T10:10:16.383Z,98.1
2022-08-28T10:30:16.351Z,96.7
2022-08-28T10:50:16.316Z,97.3
2022-08-28T11:10:16.291Z,97.3
2022-08-28T11:30:16.305Z,96.9
2022-08-28T11:50:16.239Z,95.7
2022-08-28T12:10:16.210Z,96.5
2022-08-28T12:30:16.172Z,96.6
2022-08-28T12:50:16.145Z,95.0
2022-08-28T13:10:16.118Z,95.1
2022-08-28T13:30:16.090Z,95.6
2022-08-28T13:50:16.060Z,92.5
2022-08-28T14:10:16.021Z,98.4
2022-08-28T14:30:15.998Z,100.0
2022-08-28T15:10:15.939Z,100.0
2022-08-28T15:30:15.905Z,100.0
2022-08-28T15:50:15.881Z,100.0
2022-08-28T16:10:15.837Z,100.0
2022-08-28T16:30:15.804Z,100.0
2022-08-28T16:50:15.773Z,100.0
2022-08-28T17:10:15.754Z,100.0
2022-08-28T17:30:15.728Z,100.0
2022-08-28T17:50:15.688Z,99.7
2022-08-28T18:10:15.657Z,99.5
2022-08-28T18:30:15.638Z,99.2
2022-08-28T18:50:15.609Z,98.7
2022-08-28T19:10:15.579Z,99.0
2022-08-28T19:30:15.538Z,98.1
2022-08-28T19:50:15.557Z,97.8
2022-08-28T20:10:15.493Z,97.3
2022-08-28T20:30:15.459Z,97.4
2022-08-28T20:50:15.419Z,97.1
2022-08-28T21:10:15.387Z,97.9
2022-08-28T21:30:15.361Z,98.2
2022-08-28T21:50:15.330Z,98.9
2022-08-28T22:10:15.297Z,98.1
2022-08-28T22:30:15.282Z,98.0
2022-08-28T22:50:15.250Z,96.7
2022-08-28T23:10:15.215Z,96.6
2022-08-28T23:30:15.197Z,98.0
2022-08-28T23:50:15.157Z,98.5
